sensor_id;sensor_type;location;lat;lon;timestamp;temperature;humidity
39919;DHT22;25589;51.552;13.424;2022-10-16T00:01:35;16.40;99.90
39919;DHT22;25589;51.552;13.424;2022-10-16T00:04:01;16.30;99.90
39919;DHT22;25589;51.552;13.424;2022-10-16T00:06:29;16.40;99.90
39919;DHT22;25589;51.552;13.424;2022-10-16T00:08:56;16.40;99.90
39919;DHT22;25589;51.552;13.424;2022-10-16T00:11:30;16.40;99.90
39919;DHT22;25589;51.552;13.424;2022-10-16T00:13:58;16.40;99.90
39919;DHT22;25589;51.552;13.424;2022-10-16T00:16:24;16.40;99.90
39919;DHT22;25589;51.552;13.424;2022-10-16T00:18:50;16.50;99.90
39919;DHT22;25589;51.552;13.424;2022-10-16T00:21:22;16.60;99.90
39919;DHT22;25589;51.552;13.424;2022-10-16T00:23:51;16.40;99.90
39919;DHT22;25589;51.552;13.424;2022-10-16T00:26:17;16.60;99.90
39919;DHT22;25589;51.552;13.424;2022-10-16T00:28:46;16.30;99.90
39919;DHT22;25589;51.552;13.424;2022-10-16T00:31:12;16.40;99.90
39919;DHT22;25589;51.552;13.424;2022-10-16T00:33:39;16.40;99.90
39919;DHT22;25589;51.552;13.424;2022-10-16T00:36:07;16.40;99.90
39919;DHT22;25589;51.552;13.424;2022-10-16T00:38:34;16.40;99.90
39919;DHT22;25589;51.552;13.424;2022-10-16T00:40:59;16.70;99.90
39919;DHT22;25589;51.552;13.424;2022-10-16T00:43:45;16.40;99.90
39919;DHT22;25589;51.552;13.424;2022-10-16T00:49:11;16.30;99.90
39919;DHT22;25589;51.552;13.424;2022-10-16T00:51:49;16.20;99.90
39919;DHT22;25589;51.552;13.424;2022-10-16T00:54:23;16.40;99.90
39919;DHT22;25589;51.552;13.424;2022-10-16T00:56:50;16.10;99.90
39919;DHT22;25589;51.552;13.424;2022-10-16T01:01:53;16.30;99.90
39919;DHT22;25589;51.552;13.424;2022-10-16T01:04:19;16.30;99.90
39919;DHT22;25589;51.552;13.424;2022-10-16T01:12:10;16.30;99.90
39919;DHT22;25589;51.552;13.424;2022-10-16T01:14:47;16.90;99.90
39919;DHT22;25589;51.552;13.424;2022-10-16T01:17:31;16.30;99.90
39919;DHT22;25589;51.552;13.424;2022-10-16T01:20:26;16.40;99.90
39919;DHT22;25589;51.552;13.424;2022-10-16T01:25:49;16.40;99.90
39919;DHT22;25589;51.552;13.424;2022-10-16T01:28:23;16.40;99.90
39919;DHT22;25589;51.552;13.424;2022-10-16T01:30:53;16.40;99.90
39919;DHT22;25589;51.552;13.424;2022-10-16T01:33:23;16.50;99.90
39919;DHT22;25589;51.552;13.424;2022-10-16T01:35:54;16.50;99.90
39919;DHT22;25589;51.552;13.424;2022-10-16T01:38:36;16.80;99.90
39919;DHT22;25589;51.552;13.424;2022-10-16T01:41:33;16.40;99.90
39919;DHT22;25589;51.552;13.424;2022-10-16T01:44:36;16.50;99.90
39919;DHT22;25589;51.552;13.424;2022-10-16T01:46:55;16.70;99.90
39919;DHT22;25589;51.552;13.424;2022-10-16T01:51:58;16.50;99.90
39919;DHT22;25589;51.552;13.424;2022-10-16T01:56:56;16.50;99.90
39919;DHT22;25589;51.552;13.424;2022-10-16T01:59:24;16.60;99.90
39919;DHT22;25589;51.552;13.424;2022-10-16T02:01:56;16.50;99.90
39919;DHT22;25589;51.552;13.424;2022-10-16T02:04:26;16.50;99.90
39919;DHT22;25589;51.552;13.424;2022-10-16T02:06:53;16.60;99.90
39919;DHT22;25589;51.552;13.424;2022-10-16T02:09:19;16.50;99.90
39919;DHT22;25589;51.552;13.424;2022-10-16T02:11:45;16.50;99.90
39919;DHT22;25589;51.552;13.424;2022-10-16T02:14:11;15.80;99.90
39919;DHT22;25589;51.552;13.424;2022-10-16T02:16:39;16.80;99.90
39919;DHT22;25589;51.552;13.424;2022-10-16T02:19:05;16.50;99.90
39919;DHT22;25589;51.552;13.424;2022-10-16T02:21:56;16.50;99.90
39919;DHT22;25589;51.552;13.424;2022-10-16T02:24:32;16.60;99.90
39919;DHT22;25589;51.552;13.424;2022-10-16T02:27:09;16.50;99.90
39919;DHT22;25589;51.552;13.424;2022-10-16T02:29:43;16.50;99.90
39919;DHT22;25589;51.552;13.424;2022-10-16T02:32:16;16.30;99.90
39919;DHT22;25589;51.552;13.424;2022-10-16T02:34:44;16.50;99.90
39919;DHT22;25589;51.552;13.424;2022-10-16T02:37:10;16.60;99.90
39919;DHT22;25589;51.552;13.424;2022-10-16T02:39:37;16.50;99.90
39919;DHT22;25589;51.552;13.424;2022-10-16T02:42:03;16.60;99.90
39919;DHT22;25589;51.552;13.424;2022-10-16T02:44:29;16.60;99.90
39919;DHT22;25589;51.552;13.424;2022-10-16T02:46:55;16.60;99.90
39919;DHT22;25589;51.552;13.424;2022-10-16T02:49:21;16.60;99.90
39919;DHT22;25589;51.552;13.424;2022-10-16T02:51:46;16.60;99.90
39919;DHT22;25589;51.552;13.424;2022-10-16T02:54:12;16.60;99.90
39919;DHT22;25589;51.552;13.424;2022-10-16T02:56:38;16.60;99.90
39919;DHT22;25589;51.552;13.424;2022-10-16T02:59:04;16.60;99.90
39919;DHT22;25589;51.552;13.424;2022-10-16T03:01:29;16.70;99.90
39919;DHT22;25589;51.552;13.424;2022-10-16T03:03:55;16.80;99.90
39919;DHT22;25589;51.552;13.424;2022-10-16T03:06:21;16.50;99.90
39919;DHT22;25589;51.552;13.424;2022-10-16T03:08:46;16.50;99.90
39919;DHT22;25589;51.552;13.424;2022-10-16T03:11:12;16.50;99.90
39919;DHT22;25589;51.552;13.424;2022-10-16T03:13:38;16.40;99.90
39919;DHT22;25589;51.552;13.424;2022-10-16T03:16:03;16.40;99.90
39919;DHT22;25589;51.552;13.424;2022-10-16T03:18:29;16.40;99.90
39919;DHT22;25589;51.552;13.424;2022-10-16T03:20:54;16.60;99.90
39919;DHT22;25589;51.552;13.424;2022-10-16T03:23:20;16.40;99.90
39919;DHT22;25589;51.552;13.424;2022-10-16T03:25:46;16.40;99.90
39919;DHT22;25589;51.552;13.424;2022-10-16T03:28:12;16.50;99.90
39919;DHT22;25589;51.552;13.424;2022-10-16T03:30:37;16.40;99.90
39919;DHT22;25589;51.552;13.424;2022-10-16T03:33:05;16.50;99.90
39919;DHT22;25589;51.552;13.424;2022-10-16T03:35:30;16.50;99.90
39919;DHT22;25589;51.552;13.424;2022-10-16T03:37:56;16.50;99.90
39919;DHT22;25589;51.552;13.424;2022-10-16T03:40:21;16.50;99.90
39919;DHT22;25589;51.552;13.424;2022-10-16T03:42:47;16.50;99.90
39919;DHT22;25589;51.552;13.424;2022-10-16T03:45:12;16.60;99.90
39919;DHT22;25589;51.552;13.424;2022-10-16T03:47:38;16.50;99.90
39919;DHT22;25589;51.552;13.424;2022-10-16T03:50:04;16.40;99.90
39919;DHT22;25589;51.552;13.424;2022-10-16T03:52:30;16.40;99.90
39919;DHT22;25589;51.552;13.424;2022-10-16T03:54:57;16.40;99.90
39919;DHT22;25589;51.552;13.424;2022-10-16T03:57:23;16.30;99.90
39919;DHT22;25589;51.552;13.424;2022-10-16T03:59:48;16.40;99.90
39919;DHT22;25589;51.552;13.424;2022-10-16T04:02:14;16.40;99.90
39919;DHT22;25589;51.552;13.424;2022-10-16T04:04:39;16.40;99.90
39919;DHT22;25589;51.552;13.424;2022-10-16T04:07:05;16.60;99.90
39919;DHT22;25589;51.552;13.424;2022-10-16T04:09:30;16.40;99.90
39919;DHT22;25589;51.552;13.424;2022-10-16T04:11:56;16.40;99.90
39919;DHT22;25589;51.552;13.424;2022-10-16T04:14:21;16.30;99.90
39919;DHT22;25589;51.552;13.424;2022-10-16T04:16:47;16.30;99.90
39919;DHT22;25589;51.552;13.424;2022-10-16T04:19:13;16.30;99.90
39919;DHT22;25589;51.552;13.424;2022-10-16T04:21:38;16.30;99.90
39919;DHT22;25589;51.552;13.424;2022-10-16T04:24:04;16.20;99.90
39919;DHT22;25589;51.552;13.424;2022-10-16T04:26:30;16.20;99.90
39919;DHT22;25589;51.552;13.424;2022-10-16T04:28:55;16.20;99.90
39919;DHT22;25589;51.552;13.424;2022-10-16T04:31:21;16.50;99.90
39919;DHT22;25589;51.552;13.424;2022-10-16T04:33:46;16.10;99.90
39919;DHT22;25589;51.552;13.424;2022-10-16T04:36:12;16.10;99.90
39919;DHT22;25589;51.552;13.424;2022-10-16T04:38:38;15.80;99.90
39919;DHT22;25589;51.552;13.424;2022-10-16T04:41:05;15.70;99.90
39919;DHT22;25589;51.552;13.424;2022-10-16T04:43:31;16.00;99.90
39919;DHT22;25589;51.552;13.424;2022-10-16T04:45:57;15.90;99.90
39919;DHT22;25589;51.552;13.424;2022-10-16T04:48:22;15.90;99.90
39919;DHT22;25589;51.552;13.424;2022-10-16T04:50:48;15.90;99.90
39919;DHT22;25589;51.552;13.424;2022-10-16T04:53:14;15.90;99.90
39919;DHT22;25589;51.552;13.424;2022-10-16T04:55:41;15.90;99.90
39919;DHT22;25589;51.552;13.424;2022-10-16T04:58:06;15.90;99.90
39919;DHT22;25589;51.552;13.424;2022-10-16T05:00:32;16.20;99.90
39919;DHT22;25589;51.552;13.424;2022-10-16T05:02:58;15.50;99.90
39919;DHT22;25589;51.552;13.424;2022-10-16T05:05:25;15.80;99.90
39919;DHT22;25589;51.552;13.424;2022-10-16T05:07:51;15.80;99.90
39919;DHT22;25589;51.552;13.424;2022-10-16T05:10:16;15.80;99.90
39919;DHT22;25589;51.552;13.424;2022-10-16T05:12:42;15.90;99.90
39919;DHT22;25589;51.552;13.424;2022-10-16T05:15:08;15.20;99.90
39919;DHT22;25589;51.552;13.424;2022-10-16T05:17:34;15.70;99.90
39919;DHT22;25589;51.552;13.424;2022-10-16T05:20:00;15.70;99.90
39919;DHT22;25589;51.552;13.424;2022-10-16T05:22:25;15.80;99.90
39919;DHT22;25589;51.552;13.424;2022-10-16T05:24:51;15.40;99.90
39919;DHT22;25589;51.552;13.424;2022-10-16T05:27:16;15.50;99.90
39919;DHT22;25589;51.552;13.424;2022-10-16T05:29:46;15.90;99.90
39919;DHT22;25589;51.552;13.424;2022-10-16T05:32:15;15.90;99.90
39919;DHT22;25589;51.552;13.424;2022-10-16T05:34:41;15.90;99.90
39919;DHT22;25589;51.552;13.424;2022-10-16T05:37:07;15.90;99.90
39919;DHT22;25589;51.552;13.424;2022-10-16T05:39:33;15.90;99.90
39919;DHT22;25589;51.552;13.424;2022-10-16T05:41:58;16.00;99.90
39919;DHT22;25589;51.552;13.424;2022-10-16T05:44:24;16.00;99.90
39919;DHT22;25589;51.552;13.424;2022-10-16T05:46:49;16.00;99.90
39919;DHT22;25589;51.552;13.424;2022-10-16T05:49:15;16.10;99.90
39919;DHT22;25589;51.552;13.424;2022-10-16T05:51:41;16.30;99.90
39919;DHT22;25589;51.552;13.424;2022-10-16T05:54:07;16.10;99.90
39919;DHT22;25589;51.552;13.424;2022-10-16T05:56:33;16.10;99.90
39919;DHT22;25589;51.552;13.424;2022-10-16T05:58:58;16.10;99.90
39919;DHT22;25589;51.552;13.424;2022-10-16T06:01:24;16.30;99.90
39919;DHT22;25589;51.552;13.424;2022-10-16T06:03:53;16.10;99.90
39919;DHT22;25589;51.552;13.424;2022-10-16T06:08:47;16.20;99.90
39919;DHT22;25589;51.552;13.424;2022-10-16T06:11:18;16.10;99.90
39919;DHT22;25589;51.552;13.424;2022-10-16T06:13:44;16.10;99.90
39919;DHT22;25589;51.552;13.424;2022-10-16T06:16:11;16.00;99.90
39919;DHT22;25589;51.552;13.424;2022-10-16T06:18:38;16.10;99.90
39919;DHT22;25589;51.552;13.424;2022-10-16T06:21:08;16.60;99.90
39919;DHT22;25589;51.552;13.424;2022-10-16T06:23:35;16.40;99.90
39919;DHT22;25589;51.552;13.424;2022-10-16T06:26:11;16.20;99.90
39919;DHT22;25589;51.552;13.424;2022-10-16T06:28:37;15.90;99.90
39919;DHT22;25589;51.552;13.424;2022-10-16T06:31:04;16.30;99.90
39919;DHT22;25589;51.552;13.424;2022-10-16T06:33:29;16.10;99.90
39919;DHT22;25589;51.552;13.424;2022-10-16T06:38:29;16.70;99.90
39919;DHT22;25589;51.552;13.424;2022-10-16T06:40:54;16.50;99.90
39919;DHT22;25589;51.552;13.424;2022-10-16T06:43:20;16.40;99.90
39919;DHT22;25589;51.552;13.424;2022-10-16T06:45:53;16.40;99.90
39919;DHT22;25589;51.552;13.424;2022-10-16T06:48:19;16.50;99.90
39919;DHT22;25589;51.552;13.424;2022-10-16T06:50:58;16.60;99.90
39919;DHT22;25589;51.552;13.424;2022-10-16T06:53:24;16.60;99.90
39919;DHT22;25589;51.552;13.424;2022-10-16T06:55:50;16.70;99.90
39919;DHT22;25589;51.552;13.424;2022-10-16T06:58:16;16.80;99.90
39919;DHT22;25589;51.552;13.424;2022-10-16T07:00:41;16.90;99.90
39919;DHT22;25589;51.552;13.424;2022-10-16T07:03:07;17.10;99.90
39919;DHT22;25589;51.552;13.424;2022-10-16T07:05:40;17.00;99.90
39919;DHT22;25589;51.552;13.424;2022-10-16T07:08:06;17.10;99.90
39919;DHT22;25589;51.552;13.424;2022-10-16T07:10:32;17.40;99.90
39919;DHT22;25589;51.552;13.424;2022-10-16T07:12:58;17.50;99.90
39919;DHT22;25589;51.552;13.424;2022-10-16T07:15:25;17.30;99.90
39919;DHT22;25589;51.552;13.424;2022-10-16T07:17:51;17.30;99.90
39919;DHT22;25589;51.552;13.424;2022-10-16T07:20:16;17.40;99.90
39919;DHT22;25589;51.552;13.424;2022-10-16T07:22:42;17.40;99.90
39919;DHT22;25589;51.552;13.424;2022-10-16T07:25:08;17.50;99.90
39919;DHT22;25589;51.552;13.424;2022-10-16T07:27:33;17.50;99.90
39919;DHT22;25589;51.552;13.424;2022-10-16T07:29:59;17.50;99.90
39919;DHT22;25589;51.552;13.424;2022-10-16T07:32:25;17.50;99.90
39919;DHT22;25589;51.552;13.424;2022-10-16T07:34:51;17.70;99.90
39919;DHT22;25589;51.552;13.424;2022-10-16T07:37:17;17.50;99.90
39919;DHT22;25589;51.552;13.424;2022-10-16T07:39:42;17.50;99.90
39919;DHT22;25589;51.552;13.424;2022-10-16T07:42:08;17.50;99.90
39919;DHT22;25589;51.552;13.424;2022-10-16T07:44:33;17.50;99.90
39919;DHT22;25589;51.552;13.424;2022-10-16T07:46:59;17.50;99.90
39919;DHT22;25589;51.552;13.424;2022-10-16T07:49:25;17.70;99.90
39919;DHT22;25589;51.552;13.424;2022-10-16T07:51:50;17.60;99.90
39919;DHT22;25589;51.552;13.424;2022-10-16T07:54:16;17.70;99.90
39919;DHT22;25589;51.552;13.424;2022-10-16T07:56:41;17.70;99.90
39919;DHT22;25589;51.552;13.424;2022-10-16T07:59:07;17.80;99.90
39919;DHT22;25589;51.552;13.424;2022-10-16T08:01:32;17.90;99.90
39919;DHT22;25589;51.552;13.424;2022-10-16T08:03:58;18.50;99.90
39919;DHT22;25589;51.552;13.424;2022-10-16T08:06:23;18.20;99.90
39919;DHT22;25589;51.552;13.424;2022-10-16T08:08:49;18.30;99.90
39919;DHT22;25589;51.552;13.424;2022-10-16T08:11:15;18.50;99.90
39919;DHT22;25589;51.552;13.424;2022-10-16T08:13:41;18.50;99.90
39919;DHT22;25589;51.552;13.424;2022-10-16T08:16:07;18.60;99.90
39919;DHT22;25589;51.552;13.424;2022-10-16T08:18:38;18.50;99.90
39919;DHT22;25589;51.552;13.424;2022-10-16T08:21:05;18.60;99.90
39919;DHT22;25589;51.552;13.424;2022-10-16T08:23:31;18.60;99.90
39919;DHT22;25589;51.552;13.424;2022-10-16T08:26:03;18.60;99.90
39919;DHT22;25589;51.552;13.424;2022-10-16T08:28:29;18.60;99.90
39919;DHT22;25589;51.552;13.424;2022-10-16T08:30:54;18.50;99.90
39919;DHT22;25589;51.552;13.424;2022-10-16T08:33:22;18.80;99.90
39919;DHT22;25589;51.552;13.424;2022-10-16T08:35:52;18.70;99.90
39919;DHT22;25589;51.552;13.424;2022-10-16T08:38:19;18.70;99.90
39919;DHT22;25589;51.552;13.424;2022-10-16T08:40:45;18.70;99.90
39919;DHT22;25589;51.552;13.424;2022-10-16T08:48:48;19.00;99.90
39919;DHT22;25589;51.552;13.424;2022-10-16T08:51:28;19.10;99.90
39919;DHT22;25589;51.552;13.424;2022-10-16T08:53:59;19.20;99.90
39919;DHT22;25589;51.552;13.424;2022-10-16T08:56:27;19.20;99.90
39919;DHT22;25589;51.552;13.424;2022-10-16T08:58:54;19.40;99.90
39919;DHT22;25589;51.552;13.424;2022-10-16T09:01:21;19.60;99.90
39919;DHT22;25589;51.552;13.424;2022-10-16T09:06:44;19.80;99.90
39919;DHT22;25589;51.552;13.424;2022-10-16T09:12:12;19.90;99.90
39919;DHT22;25589;51.552;13.424;2022-10-16T09:14:54;20.00;99.90
39919;DHT22;25589;51.552;13.424;2022-10-16T09:20:18;20.00;99.90
39919;DHT22;25589;51.552;13.424;2022-10-16T09:22:44;20.10;99.90
39919;DHT22;25589;51.552;13.424;2022-10-16T09:25:13;20.20;99.90
39919;DHT22;25589;51.552;13.424;2022-10-16T09:27:39;20.30;99.90
39919;DHT22;25589;51.552;13.424;2022-10-16T09:30:13;20.30;99.90
39919;DHT22;25589;51.552;13.424;2022-10-16T09:32:40;20.30;99.90
39919;DHT22;25589;51.552;13.424;2022-10-16T09:35:13;20.20;99.90
39919;DHT22;25589;51.552;13.424;2022-10-16T09:37:41;20.20;99.90
39919;DHT22;25589;51.552;13.424;2022-10-16T09:40:34;20.10;99.90
39919;DHT22;25589;51.552;13.424;2022-10-16T09:43:12;20.10;99.90
39919;DHT22;25589;51.552;13.424;2022-10-16T09:45:40;20.10;99.90
39919;DHT22;25589;51.552;13.424;2022-10-16T09:48:13;20.00;99.90
39919;DHT22;25589;51.552;13.424;2022-10-16T09:50:44;20.00;99.90
39919;DHT22;25589;51.552;13.424;2022-10-16T09:53:20;20.00;99.90
39919;DHT22;25589;51.552;13.424;2022-10-16T09:55:52;20.10;99.90
39919;DHT22;25589;51.552;13.424;2022-10-16T09:58:18;20.10;99.90
39919;DHT22;25589;51.552;13.424;2022-10-16T10:00:53;20.20;99.90
39919;DHT22;25589;51.552;13.424;2022-10-16T10:03:39;20.30;99.90
39919;DHT22;25589;51.552;13.424;2022-10-16T10:08:51;20.60;99.90
39919;DHT22;25589;51.552;13.424;2022-10-16T10:11:17;20.90;99.90
39919;DHT22;25589;51.552;13.424;2022-10-16T10:13:42;20.90;99.90
39919;DHT22;25589;51.552;13.424;2022-10-16T10:16:08;21.00;99.90
39919;DHT22;25589;51.552;13.424;2022-10-16T10:18:34;21.10;99.90
39919;DHT22;25589;51.552;13.424;2022-10-16T10:21:01;21.20;99.90
39919;DHT22;25589;51.552;13.424;2022-10-16T10:23:28;21.10;99.90
39919;DHT22;25589;51.552;13.424;2022-10-16T10:26:11;21.00;99.90
39919;DHT22;25589;51.552;13.424;2022-10-16T10:29:16;20.80;99.90
39919;DHT22;25589;51.552;13.424;2022-10-16T10:34:22;20.70;99.90
39919;DHT22;25589;51.552;13.424;2022-10-16T10:37:05;20.60;99.90
39919;DHT22;25589;51.552;13.424;2022-10-16T10:39:43;20.70;99.90
39919;DHT22;25589;51.552;13.424;2022-10-16T10:47:48;20.70;99.90
39919;DHT22;25589;51.552;13.424;2022-10-16T10:53:10;20.80;99.90
39919;DHT22;25589;51.552;13.424;2022-10-16T10:55:40;20.90;99.90
39919;DHT22;25589;51.552;13.424;2022-10-16T10:58:40;20.90;99.90
39919;DHT22;25589;51.552;13.424;2022-10-16T11:01:16;20.90;99.90
39919;DHT22;25589;51.552;13.424;2022-10-16T11:06:29;21.10;99.90
39919;DHT22;25589;51.552;13.424;2022-10-16T11:12:00;21.30;99.90
39919;DHT22;25589;51.552;13.424;2022-10-16T11:14:38;21.40;99.90
39919;DHT22;25589;51.552;13.424;2022-10-16T11:23:02;21.10;99.90
39919;DHT22;25589;51.552;13.424;2022-10-16T11:25:31;21.10;99.90
39919;DHT22;25589;51.552;13.424;2022-10-16T11:28:35;21.10;99.90
39919;DHT22;25589;51.552;13.424;2022-10-16T11:31:10;21.10;99.90
39919;DHT22;25589;51.552;13.424;2022-10-16T11:33:44;21.10;99.90
39919;DHT22;25589;51.552;13.424;2022-10-16T11:41:33;21.10;99.90
39919;DHT22;25589;51.552;13.424;2022-10-16T11:47:27;21.10;99.90
39919;DHT22;25589;51.552;13.424;2022-10-16T11:52:44;21.00;99.90
39919;DHT22;25589;51.552;13.424;2022-10-16T11:58:06;21.20;99.90
39919;DHT22;25589;51.552;13.424;2022-10-16T12:08:59;21.10;99.90
39919;DHT22;25589;51.552;13.424;2022-10-16T12:16:30;21.10;99.90
39919;DHT22;25589;51.552;13.424;2022-10-16T12:19:16;21.20;99.90
39919;DHT22;25589;51.552;13.424;2022-10-16T12:21:43;21.30;99.90
39919;DHT22;25589;51.552;13.424;2022-10-16T12:24:32;21.20;99.90
39919;DHT22;25589;51.552;13.424;2022-10-16T12:26:58;21.30;99.90
39919;DHT22;25589;51.552;13.424;2022-10-16T12:29:34;21.30;99.90
39919;DHT22;25589;51.552;13.424;2022-10-16T12:32:00;21.40;99.90
39919;DHT22;25589;51.552;13.424;2022-10-16T12:36:55;21.60;99.90
39919;DHT22;25589;51.552;13.424;2022-10-16T12:39:32;21.70;99.90
39919;DHT22;25589;51.552;13.424;2022-10-16T12:42:03;21.60;99.90
39919;DHT22;25589;51.552;13.424;2022-10-16T12:44:36;21.60;99.90
39919;DHT22;25589;51.552;13.424;2022-10-16T12:47:02;21.60;99.90
39919;DHT22;25589;51.552;13.424;2022-10-16T12:51:53;21.40;99.90
39919;DHT22;25589;51.552;13.424;2022-10-16T12:54:36;21.40;99.90
39919;DHT22;25589;51.552;13.424;2022-10-16T13:03:39;21.30;99.90
39919;DHT22;25589;51.552;13.424;2022-10-16T13:12:09;21.40;99.90
39919;DHT22;25589;51.552;13.424;2022-10-16T13:20:32;21.70;99.90
39919;DHT22;25589;51.552;13.424;2022-10-16T13:23:25;21.90;99.90
39919;DHT22;25589;51.552;13.424;2022-10-16T13:28:27;21.90;99.90
39919;DHT22;25589;51.552;13.424;2022-10-16T13:30:56;21.90;99.90
39919;DHT22;25589;51.552;13.424;2022-10-16T13:36:00;22.50;99.90
39919;DHT22;25589;51.552;13.424;2022-10-16T13:38:34;22.70;99.90
39919;DHT22;25589;51.552;13.424;2022-10-16T13:41:05;22.70;99.90
39919;DHT22;25589;51.552;13.424;2022-10-16T13:43:42;22.60;99.90
39919;DHT22;25589;51.552;13.424;2022-10-16T13:46:14;22.60;99.90
39919;DHT22;25589;51.552;13.424;2022-10-16T13:48:40;22.60;99.90
39919;DHT22;25589;51.552;13.424;2022-10-16T13:51:13;22.50;99.90
39919;DHT22;25589;51.552;13.424;2022-10-16T13:53:40;22.40;99.90
39919;DHT22;25589;51.552;13.424;2022-10-16T13:56:12;22.30;99.90
39919;DHT22;25589;51.552;13.424;2022-10-16T13:58:38;22.00;99.90
39919;DHT22;25589;51.552;13.424;2022-10-16T14:01:18;21.90;99.90
39919;DHT22;25589;51.552;13.424;2022-10-16T14:03:46;21.80;99.90
39919;DHT22;25589;51.552;13.424;2022-10-16T14:06:20;21.70;99.90
39919;DHT22;25589;51.552;13.424;2022-10-16T14:11:25;21.80;99.90
39919;DHT22;25589;51.552;13.424;2022-10-16T14:13:51;21.90;99.90
39919;DHT22;25589;51.552;13.424;2022-10-16T14:16:22;22.50;99.90
39919;DHT22;25589;51.552;13.424;2022-10-16T14:19:04;23.10;99.90
39919;DHT22;25589;51.552;13.424;2022-10-16T14:21:32;23.80;99.90
39919;DHT22;25589;51.552;13.424;2022-10-16T14:23:59;24.20;99.90
39919;DHT22;25589;51.552;13.424;2022-10-16T14:26:27;24.40;99.90
39919;DHT22;25589;51.552;13.424;2022-10-16T14:29:14;24.30;99.90
39919;DHT22;25589;51.552;13.424;2022-10-16T14:31:40;24.40;99.90
39919;DHT22;25589;51.552;13.424;2022-10-16T14:34:32;24.90;99.90
39919;DHT22;25589;51.552;13.424;2022-10-16T14:37:14;25.40;99.90
39919;DHT22;25589;51.552;13.424;2022-10-16T14:39:49;25.80;99.90
39919;DHT22;25589;51.552;13.424;2022-10-16T14:42:17;26.20;99.90
39919;DHT22;25589;51.552;13.424;2022-10-16T14:44:45;26.30;99.90
39919;DHT22;25589;51.552;13.424;2022-10-16T14:47:17;26.30;99.90
39919;DHT22;25589;51.552;13.424;2022-10-16T14:49:47;25.80;99.90
39919;DHT22;25589;51.552;13.424;2022-10-16T14:52:13;25.10;99.90
39919;DHT22;25589;51.552;13.424;2022-10-16T14:54:39;24.70;99.90
39919;DHT22;25589;51.552;13.424;2022-10-16T14:57:05;24.40;99.90
39919;DHT22;25589;51.552;13.424;2022-10-16T14:59:41;24.00;99.90
39919;DHT22;25589;51.552;13.424;2022-10-16T15:02:20;24.00;99.90
39919;DHT22;25589;51.552;13.424;2022-10-16T15:04:48;24.10;99.90
39919;DHT22;25589;51.552;13.424;2022-10-16T15:07:14;24.20;99.90
39919;DHT22;25589;51.552;13.424;2022-10-16T15:09:39;24.40;99.90
39919;DHT22;25589;51.552;13.424;2022-10-16T15:12:05;24.70;99.90
39919;DHT22;25589;51.552;13.424;2022-10-16T15:14:30;25.10;99.90
39919;DHT22;25589;51.552;13.424;2022-10-16T15:16:56;25.10;99.90
39919;DHT22;25589;51.552;13.424;2022-10-16T15:19:22;25.40;99.90
39919;DHT22;25589;51.552;13.424;2022-10-16T15:21:47;25.70;99.90
39919;DHT22;25589;51.552;13.424;2022-10-16T15:24:14;25.90;99.90
39919;DHT22;25589;51.552;13.424;2022-10-16T15:26:40;26.00;99.90
39919;DHT22;25589;51.552;13.424;2022-10-16T15:29:05;26.00;99.90
39919;DHT22;25589;51.552;13.424;2022-10-16T15:31:32;26.00;99.90
39919;DHT22;25589;51.552;13.424;2022-10-16T15:33:57;25.70;99.90
39919;DHT22;25589;51.552;13.424;2022-10-16T15:36:31;25.50;99.90
39919;DHT22;25589;51.552;13.424;2022-10-16T15:38:59;25.10;99.90
39919;DHT22;25589;51.552;13.424;2022-10-16T15:41:24;25.00;99.90
39919;DHT22;25589;51.552;13.424;2022-10-16T15:43:50;24.80;99.90
39919;DHT22;25589;51.552;13.424;2022-10-16T15:46:19;24.50;99.90
39919;DHT22;25589;51.552;13.424;2022-10-16T15:48:46;24.30;99.90
39919;DHT22;25589;51.552;13.424;2022-10-16T15:51:12;24.10;99.90
39919;DHT22;25589;51.552;13.424;2022-10-16T15:53:37;24.10;99.90
39919;DHT22;25589;51.552;13.424;2022-10-16T15:56:08;24.20;99.90
39919;DHT22;25589;51.552;13.424;2022-10-16T15:58:34;24.00;99.90
39919;DHT22;25589;51.552;13.424;2022-10-16T16:01:00;23.80;99.90
39919;DHT22;25589;51.552;13.424;2022-10-16T16:03:27;23.50;99.90
39919;DHT22;25589;51.552;13.424;2022-10-16T16:05:53;23.20;99.90
39919;DHT22;25589;51.552;13.424;2022-10-16T16:08:19;23.00;99.90
39919;DHT22;25589;51.552;13.424;2022-10-16T16:10:45;22.70;99.90
39919;DHT22;25589;51.552;13.424;2022-10-16T16:13:11;22.50;99.90
39919;DHT22;25589;51.552;13.424;2022-10-16T16:15:39;22.30;99.90
39919;DHT22;25589;51.552;13.424;2022-10-16T16:18:05;22.10;99.90
39919;DHT22;25589;51.552;13.424;2022-10-16T16:20:31;21.90;99.90
39919;DHT22;25589;51.552;13.424;2022-10-16T16:22:57;21.80;99.90
39919;DHT22;25589;51.552;13.424;2022-10-16T16:25:23;21.60;99.90
39919;DHT22;25589;51.552;13.424;2022-10-16T16:27:48;21.50;99.90
39919;DHT22;25589;51.552;13.424;2022-10-16T16:30:14;21.40;99.90
39919;DHT22;25589;51.552;13.424;2022-10-16T16:32:39;21.20;99.90
39919;DHT22;25589;51.552;13.424;2022-10-16T16:35:05;21.10;99.90
39919;DHT22;25589;51.552;13.424;2022-10-16T16:37:31;21.00;99.90
39919;DHT22;25589;51.552;13.424;2022-10-16T16:39:57;20.80;99.90
39919;DHT22;25589;51.552;13.424;2022-10-16T16:42:26;20.70;99.90
39919;DHT22;25589;51.552;13.424;2022-10-16T16:44:52;20.70;99.90
39919;DHT22;25589;51.552;13.424;2022-10-16T16:47:18;20.60;99.90
39919;DHT22;25589;51.552;13.424;2022-10-16T16:49:43;20.50;99.90
39919;DHT22;25589;51.552;13.424;2022-10-16T16:52:09;20.50;99.90
39919;DHT22;25589;51.552;13.424;2022-10-16T16:54:34;20.40;99.90
39919;DHT22;25589;51.552;13.424;2022-10-16T16:57:00;20.40;99.90
39919;DHT22;25589;51.552;13.424;2022-10-16T16:59:26;20.30;99.90
39919;DHT22;25589;51.552;13.424;2022-10-16T17:01:51;20.20;99.90
39919;DHT22;25589;51.552;13.424;2022-10-16T17:04:17;20.10;99.90
39919;DHT22;25589;51.552;13.424;2022-10-16T17:06:44;20.10;99.90
39919;DHT22;25589;51.552;13.424;2022-10-16T17:09:10;20.10;99.90
39919;DHT22;25589;51.552;13.424;2022-10-16T17:11:38;20.10;99.90
39919;DHT22;25589;51.552;13.424;2022-10-16T17:14:07;20.10;99.90
39919;DHT22;25589;51.552;13.424;2022-10-16T17:16:35;20.10;99.90
39919;DHT22;25589;51.552;13.424;2022-10-16T17:19:07;20.10;99.90
39919;DHT22;25589;51.552;13.424;2022-10-16T17:21:34;20.10;99.90
39919;DHT22;25589;51.552;13.424;2022-10-16T17:24:00;20.10;99.90
39919;DHT22;25589;51.552;13.424;2022-10-16T17:26:26;20.00;99.90
39919;DHT22;25589;51.552;13.424;2022-10-16T17:28:54;20.00;99.90